createdAt,value
2018-04-01T00:01:43.065Z,7.10
2018-04-01T00:04:10.404Z,6.23
2018-04-01T00:06:37.848Z,6.47
2018-04-01T00:09:05.186Z,6.40
2018-04-01T00:11:32.527Z,6.40
2018-04-01T00:13:59.867Z,7.07
2018-04-01T00:16:27.206Z,7.33
2018-04-01T00:18:54.443Z,6.70
2018-04-01T00:21:21.782Z,6.20
2018-04-01T00:23:49.060Z,7.17
2018-04-01T00:26:17.180Z,6.90
2018-04-01T00:28:44.523Z,7.50
2018-04-01T00:31:11.862Z,7.93
2018-04-01T00:33:39.206Z,7.10
2018-04-01T00:36:06.542Z,8.90
2018-04-01T00:38:33.880Z,9.33
2018-04-01T00:41:01.220Z,10.80
2018-04-01T00:43:28.559Z,8.63
2018-04-01T00:45:55.898Z,8.23
2018-04-01T00:48:23.240Z,8.70
2018-04-01T00:50:50.476Z,9.00
2018-04-01T00:53:17.816Z,9.43
2018-04-01T00:55:45.264Z,7.80
2018-04-01T00:58:12.600Z,8.00
2018-04-01T01:00:39.942Z,8.53
2018-04-01T01:03:07.385Z,8.57
2018-04-01T01:05:34.724Z,8.37
2018-04-01T01:08:02.063Z,9.23
2018-04-01T01:10:29.507Z,8.90
2018-04-01T01:12:56.843Z,8.90
2018-04-01T01:15:24.283Z,9.40
2018-04-01T01:17:51.727Z,8.63
2018-04-01T01:20:19.170Z,9.00
2018-04-01T01:22:46.523Z,10.70
2018-04-01T01:25:13.853Z,10.17
2018-04-01T01:27:41.192Z,8.90
2018-04-01T01:30:08.531Z,9.80
2018-04-01T01:32:35.976Z,10.27
2018-04-01T01:35:03.314Z,10.40
2018-04-01T01:37:30.666Z,9.83
2018-04-01T01:39:57.992Z,9.63
2018-04-01T01:42:25.435Z,10.40
2018-04-01T01:44:52.776Z,9.63
2018-04-01T01:47:20.215Z,10.33
2018-04-01T01:49:47.555Z,10.37
2018-04-01T01:52:14.898Z,10.10
2018-04-01T01:54:42.238Z,10.00
2018-04-01T01:57:09.579Z,10.00
2018-04-01T01:59:36.919Z,10.27
2018-04-01T02:02:04.259Z,9.93
2018-04-01T02:04:31.602Z,10.80
2018-04-01T02:06:58.936Z,10.23
2018-04-01T02:09:26.277Z,10.30
2018-04-01T02:11:53.513Z,10.77
2018-04-01T02:14:20.760Z,10.10
2018-04-01T02:16:48.092Z,10.47
2018-04-01T02:19:15.430Z,10.90
2018-04-01T02:21:42.772Z,10.03
2018-04-01T02:24:10.112Z,10.80
2018-04-01T02:26:37.455Z,11.70
2018-04-01T02:29:04.792Z,10.60
2018-04-01T02:31:32.146Z,10.27
2018-04-01T02:33:59.481Z,11.40
2018-04-01T02:36:26.917Z,11.23
2018-04-01T02:38:54.258Z,10.63
2018-04-01T02:41:21.696Z,11.60
2018-04-01T02:43:49.036Z,11.03
2018-04-01T02:46:16.477Z,10.20
2018-04-01T02:48:43.819Z,11.10
2018-04-01T02:51:11.159Z,10.43
2018-04-01T02:53:38.500Z,11.40
2018-04-01T02:56:05.841Z,10.80
2018-04-01T02:58:33.179Z,10.33
2018-04-01T03:01:00.520Z,10.13
2018-04-01T03:03:28.062Z,10.60
2018-04-01T03:05:55.402Z,10.60
2018-04-01T03:08:22.640Z,10.10
2018-04-01T03:10:49.986Z,10.17
2018-04-01T03:13:17.168Z,10.90
2018-04-01T03:15:44.396Z,11.00
2018-04-01T03:18:11.695Z,9.93
2018-04-01T03:20:39.033Z,10.67
2018-04-01T03:23:06.402Z,10.00
2018-04-01T03:25:34.532Z,10.10
2018-04-01T03:28:01.875Z,11.90
2018-04-01T03:30:29.215Z,10.47
2018-04-01T03:32:56.654Z,9.70
2018-04-01T03:35:23.993Z,9.60
2018-04-01T03:37:51.542Z,9.60
2018-04-01T03:40:18.879Z,9.70
2018-04-01T03:42:46.217Z,9.50
2018-04-01T03:45:13.765Z,9.77
2018-04-01T03:47:41.109Z,9.77
2018-04-01T03:50:08.446Z,9.60
2018-04-01T03:52:35.786Z,10.87
2018-04-01T03:55:03.225Z,10.53
2018-04-01T03:57:30.565Z,11.03
2018-04-01T03:59:57.907Z,11.37
2018-04-01T04:02:25.247Z,10.60
2018-04-01T04:04:52.587Z,11.40
2018-04-01T04:07:19.932Z,10.70
2018-04-01T04:09:47.204Z,10.80
2018-04-01T04:12:14.504Z,10.87
2018-04-01T04:14:41.843Z,10.80
2018-04-01T04:17:09.184Z,10.83
2018-04-01T04:19:36.522Z,10.50
2018-04-01T04:22:03.861Z,10.70
2018-04-01T04:24:31.202Z,8.93
2018-04-01T04:26:58.542Z,10.00
2018-04-01T04:29:25.983Z,10.10
2018-04-01T04:31:53.322Z,9.40
2018-04-01T04:34:20.664Z,10.20
2018-04-01T04:36:48.002Z,11.43
2018-04-01T04:39:15.454Z,10.33
2018-04-01T04:41:42.788Z,10.60
2018-04-01T04:44:10.129Z,10.47
2018-04-01T04:46:37.672Z,10.60
2018-04-01T04:49:05.112Z,9.77
2018-04-01T04:51:32.554Z,9.00
2018-04-01T04:53:59.895Z,9.90
2018-04-01T04:56:27.310Z,9.90
2018-04-01T04:58:54.574Z,9.93
2018-04-01T05:01:21.916Z,9.70
2018-04-01T05:03:49.257Z,8.90
2018-04-01T05:06:16.696Z,8.50
2018-04-01T05:08:44.040Z,8.63
2018-04-01T05:11:11.389Z,9.70
2018-04-01T05:13:38.820Z,9.73
2018-04-01T05:16:06.160Z,10.70
2018-04-01T05:18:33.501Z,11.80
2018-04-01T05:21:00.840Z,10.20
2018-04-01T05:23:28.179Z,9.63
2018-04-01T05:25:55.519Z,9.80
2018-04-01T05:28:22.906Z,9.80
2018-04-01T05:30:50.198Z,10.10
2018-04-01T05:33:17.537Z,11.10
2018-04-01T05:35:44.983Z,9.53
2018-04-01T05:38:12.322Z,11.13
2018-04-01T05:40:39.673Z,11.18
2018-04-01T05:43:07.106Z,11.60
2018-04-01T05:45:34.443Z,10.80
2018-04-01T05:48:01.784Z,11.63
2018-04-01T05:50:29.233Z,10.53
2018-04-01T05:52:56.566Z,11.07
2018-04-01T05:55:23.845Z,11.93
2018-04-01T05:57:51.143Z,12.00
2018-04-01T06:00:18.585Z,11.83
2018-04-01T06:02:46.029Z,11.10
2018-04-01T06:05:13.470Z,11.80
2018-04-01T06:07:40.811Z,11.60
2018-04-01T06:10:08.150Z,11.03
2018-04-01T06:12:35.496Z,10.20
2018-04-01T06:15:02.830Z,11.10
2018-04-01T06:17:30.174Z,11.10
2018-04-01T06:19:57.509Z,11.20
2018-04-01T06:22:24.848Z,11.23
2018-04-01T06:24:52.190Z,11.30
2018-04-01T06:27:19.528Z,10.80
2018-04-01T06:29:46.868Z,10.90
2018-04-01T06:32:14.213Z,11.03
2018-04-01T06:34:41.549Z,11.00
2018-04-01T06:37:08.890Z,10.10
2018-04-01T06:39:36.332Z,11.30
2018-04-01T06:42:03.671Z,11.30
2018-04-01T06:44:31.011Z,10.57
2018-04-01T06:46:58.350Z,12.13
2018-04-01T06:49:25.691Z,11.60
2018-04-01T06:51:52.972Z,11.20
2018-04-01T06:54:20.370Z,11.20
2018-04-01T06:56:47.619Z,11.07
2018-04-01T06:59:14.949Z,12.07
2018-04-01T07:01:42.290Z,13.10
2018-04-01T07:04:09.633Z,11.27
2018-04-01T07:06:36.969Z,10.20
2018-04-01T07:09:04.309Z,10.40
2018-04-01T07:11:31.525Z,11.30
2018-04-01T07:13:58.887Z,8.27
2018-04-01T07:16:26.224Z,8.80
2018-04-01T07:18:53.568Z,7.77
2018-04-01T07:21:20.905Z,8.67
2018-04-01T07:23:48.972Z,9.37
2018-04-01T07:26:16.303Z,9.23
2018-04-01T07:28:43.650Z,8.40
2018-04-01T07:31:10.982Z,8.30
2018-04-01T07:33:38.322Z,8.27
2018-04-01T07:36:05.667Z,7.33
2018-04-01T07:38:33.725Z,6.40
2018-04-01T07:41:01.160Z,6.50
2018-04-01T07:43:28.503Z,7.37
2018-04-01T07:45:55.841Z,6.90
2018-04-01T07:48:23.180Z,7.33
2018-04-01T07:50:50.520Z,6.87
2018-04-01T07:53:17.963Z,6.97
2018-04-01T07:55:45.244Z,6.83
2018-04-01T07:58:12.485Z,6.10
2018-04-01T08:00:39.886Z,6.63
2018-04-01T08:03:07.222Z,6.30
2018-04-01T08:05:34.561Z,8.10
2018-04-01T08:08:01.927Z,5.03
2018-04-01T08:10:29.240Z,4.53
2018-04-01T08:12:56.579Z,4.83
2018-04-01T08:15:23.918Z,4.23
2018-04-01T08:17:51.262Z,4.10
2018-04-01T08:20:18.601Z,4.50
2018-04-01T08:22:46.142Z,4.23
2018-04-01T08:25:13.486Z,4.37
2018-04-01T08:27:40.825Z,4.10
2018-04-01T08:30:08.104Z,3.40
2018-04-01T08:32:35.403Z,3.17
2018-04-01T08:35:02.856Z,3.00
2018-04-01T08:37:30.184Z,3.40
2018-04-01T08:39:58.553Z,3.43
2018-04-01T08:42:26.093Z,3.07
2018-04-01T08:44:53.541Z,3.10
2018-04-01T08:47:20.872Z,3.60
2018-04-01T08:49:48.315Z,3.13
2018-04-01T08:52:15.663Z,3.30
2018-04-01T08:54:42.998Z,2.53
2018-04-01T08:57:10.280Z,2.77
2018-04-01T08:59:37.678Z,3.37
2018-04-01T09:02:05.018Z,2.60
2018-04-01T09:04:32.356Z,3.40
2018-04-01T09:06:59.702Z,3.10
2018-04-01T09:09:27.037Z,2.97
2018-04-01T09:11:54.376Z,2.70
2018-04-01T09:14:21.822Z,3.20
2018-04-01T09:16:49.160Z,2.53
2018-04-01T09:19:16.500Z,1.83
2018-04-01T09:21:43.840Z,2.10
2018-04-01T09:24:11.120Z,2.13
2018-04-01T09:26:39.244Z,2.13
2018-04-01T09:29:06.576Z,3.10
2018-04-01T09:31:33.917Z,2.87
2018-04-01T09:34:01.257Z,2.37
2018-04-01T09:36:28.649Z,2.43
2018-04-01T09:38:57.059Z,2.40
2018-04-01T09:41:24.400Z,2.20
2018-04-01T09:43:51.740Z,2.00
2018-04-01T09:46:19.083Z,2.10
2018-04-01T09:48:46.319Z,2.20
2018-04-01T09:51:13.559Z,2.40
2018-04-01T09:53:40.897Z,2.00
2018-04-01T09:56:08.236Z,3.20
2018-04-01T09:58:35.576Z,2.73
2018-04-01T10:01:03.632Z,2.30
2018-04-01T10:03:31.487Z,2.53
2018-04-01T10:05:59.335Z,1.87
2018-04-01T10:08:27.190Z,2.73
2018-04-01T10:10:55.058Z,2.60
2018-04-01T10:13:23.607Z,2.60
2018-04-01T10:15:51.413Z,2.27
2018-04-01T10:18:19.326Z,2.23
2018-04-01T10:20:47.265Z,2.60
2018-04-01T10:23:15.119Z,2.30
2018-04-01T10:25:42.973Z,2.40
2018-04-01T10:28:10.824Z,2.17
2018-04-01T10:30:38.674Z,2.67
2018-04-01T10:33:06.464Z,3.10
2018-04-01T10:35:34.894Z,2.40
2018-04-01T10:38:02.660Z,2.47
2018-04-01T10:40:31.313Z,2.20
2018-04-01T10:42:59.060Z,2.33
2018-04-01T10:45:26.910Z,2.63
2018-04-01T10:47:54.677Z,2.53
2018-04-01T10:50:23.332Z,2.93
2018-04-01T10:52:51.184Z,3.00
2018-04-01T10:55:18.462Z,3.17
2018-04-01T10:57:46.579Z,2.03
2018-04-01T11:00:13.921Z,2.77
2018-04-01T11:02:41.262Z,1.77
2018-04-01T11:05:08.622Z,1.60
2018-04-01T11:07:36.711Z,1.13
2018-04-01T11:10:03.998Z,1.60
2018-04-01T11:12:31.337Z,1.40
2018-04-01T11:14:58.574Z,1.83
2018-04-01T11:17:25.914Z,0.80
2018-04-01T11:19:53.254Z,0.73
2018-04-01T11:22:20.595Z,0.57
2018-04-01T11:24:47.932Z,0.80
2018-04-01T11:27:15.275Z,0.80
2018-04-01T11:29:42.614Z,1.40
2018-04-01T11:32:09.954Z,1.37
2018-04-01T11:34:37.294Z,1.13
2018-04-01T11:37:04.633Z,1.20
2018-04-01T11:39:31.975Z,0.80
2018-04-01T11:41:59.313Z,1.20
2018-04-01T11:44:26.652Z,1.20
2018-04-01T11:46:54.006Z,1.23
2018-04-01T11:49:21.336Z,2.40
2018-04-01T11:51:48.672Z,2.17
2018-04-01T11:54:16.011Z,1.77
2018-04-01T11:56:43.375Z,3.97
2018-04-01T11:59:11.514Z,2.03
2018-04-01T12:01:38.856Z,1.80
2018-04-01T12:04:06.193Z,1.70
2018-04-01T12:06:33.532Z,1.30
2018-04-01T12:09:00.901Z,1.60
2018-04-01T12:11:29.034Z,2.63
2018-04-01T12:13:56.384Z,1.90
2018-04-01T12:16:23.711Z,2.00
2018-04-01T12:18:51.052Z,1.90
2018-04-01T12:21:18.390Z,2.90
2018-04-01T12:23:45.841Z,2.90
2018-04-01T12:26:13.174Z,1.70
2018-04-01T12:28:40.513Z,1.57
2018-04-01T12:31:07.751Z,1.93
2018-04-01T12:33:35.092Z,1.57
2018-04-01T12:36:02.430Z,1.50
2018-04-01T12:38:29.770Z,1.10
2018-04-01T12:40:57.110Z,1.20
2018-04-01T12:43:24.448Z,1.40
2018-04-01T12:45:51.790Z,1.47
2018-04-01T12:48:19.133Z,1.50
2018-04-01T12:50:46.469Z,1.50
2018-04-01T12:53:13.813Z,1.27
2018-04-01T12:55:41.150Z,1.13
2018-04-01T12:58:08.490Z,1.20
2018-04-01T13:00:35.830Z,1.50
2018-04-01T13:03:03.169Z,1.40
2018-04-01T13:05:30.511Z,1.53
2018-04-01T13:07:57.854Z,1.30
2018-04-01T13:10:25.189Z,1.50
2018-04-01T13:12:52.530Z,1.80
2018-04-01T13:15:19.867Z,1.83
2018-04-01T13:17:47.143Z,2.43
2018-04-01T13:20:15.165Z,2.33
2018-04-01T13:22:42.503Z,2.20
2018-04-01T13:25:09.844Z,2.03
2018-04-01T13:27:37.183Z,1.93
2018-04-01T13:30:04.526Z,2.17
2018-04-01T13:32:31.862Z,2.00
2018-04-01T13:34:59.202Z,2.20
2018-04-01T13:37:26.542Z,2.23
2018-04-01T13:39:53.882Z,2.30
2018-04-01T13:42:21.221Z,2.43
2018-04-01T13:44:48.560Z,2.70
2018-04-01T13:47:15.909Z,2.87
2018-04-01T13:49:43.243Z,2.33
2018-04-01T13:52:10.584Z,2.40
2018-04-01T13:54:37.923Z,2.37
2018-04-01T13:57:05.263Z,2.40
2018-04-01T13:59:32.601Z,3.20
2018-04-01T14:01:59.954Z,3.10
2018-04-01T14:04:27.281Z,3.03
2018-04-01T14:06:55.443Z,3.67
2018-04-01T14:09:22.781Z,2.80
2018-04-01T14:11:50.127Z,3.07
2018-04-01T14:14:17.561Z,2.80
2018-04-01T14:16:44.906Z,2.60
2018-04-01T14:19:12.244Z,2.73
2018-04-01T14:21:39.584Z,2.57
2018-04-01T14:24:07.028Z,3.27
2018-04-01T14:26:34.365Z,2.83
2018-04-01T14:29:01.705Z,3.10
2018-04-01T14:31:28.984Z,2.73
2018-04-01T14:33:57.101Z,3.07
2018-04-01T14:36:24.441Z,3.40
2018-04-01T14:38:51.781Z,3.30
2018-04-01T14:41:19.055Z,2.47
2018-04-01T14:43:47.177Z,3.47
2018-04-01T14:46:14.519Z,2.77
2018-04-01T14:48:41.862Z,3.10
2018-04-01T14:51:09.199Z,3.37
2018-04-01T14:53:36.538Z,3.13
2018-04-01T14:56:03.992Z,3.00
2018-04-01T14:58:31.321Z,3.30
2018-04-01T15:00:58.660Z,3.30
2018-04-01T15:03:26.000Z,3.73
2018-04-01T15:05:53.340Z,3.30
2018-04-01T15:08:20.701Z,3.60
2018-04-01T15:10:48.735Z,3.53
2018-04-01T15:13:16.132Z,3.67
2018-04-01T15:15:43.443Z,3.80
2018-04-01T15:18:11.577Z,3.53
2018-04-01T15:20:38.919Z,3.63
2018-04-01T15:23:06.256Z,4.23
2018-04-01T15:25:33.594Z,3.90
2018-04-01T15:28:00.934Z,3.73
2018-04-01T15:30:28.274Z,3.40
2018-04-01T15:32:55.719Z,3.93
2018-04-01T15:35:23.057Z,3.57
2018-04-01T15:37:50.395Z,3.40
2018-04-01T15:40:17.735Z,3.80
2018-04-01T15:42:45.078Z,4.00
2018-04-01T15:45:12.418Z,3.70
2018-04-01T15:47:39.757Z,3.30
2018-04-01T15:50:07.035Z,3.67
2018-04-01T15:52:34.334Z,3.40
2018-04-01T15:55:01.674Z,3.60
2018-04-01T15:57:29.014Z,3.00
2018-04-01T15:59:56.353Z,3.40
2018-04-01T16:02:23.693Z,3.23
2018-04-01T16:04:51.034Z,2.77
2018-04-01T16:07:18.390Z,2.90
2018-04-01T16:09:45.733Z,3.23
2018-04-01T16:12:13.771Z,3.37
2018-04-01T16:14:41.110Z,3.50
2018-04-01T16:17:08.451Z,3.60
2018-04-01T16:19:35.790Z,3.77
2018-04-01T16:22:03.131Z,3.30
2018-04-01T16:24:30.469Z,2.47
2018-04-01T16:26:57.816Z,2.30
2018-04-01T16:29:25.149Z,2.50
2018-04-01T16:31:52.490Z,2.80
2018-04-01T16:34:19.829Z,4.03
2018-04-01T16:36:47.580Z,4.80
2018-04-01T16:39:14.919Z,4.03
2018-04-01T16:41:42.260Z,3.13
2018-04-01T16:44:09.600Z,3.57
2018-04-01T16:46:36.939Z,3.10
2018-04-01T16:49:04.281Z,3.30
2018-04-01T16:51:31.661Z,2.93
2018-04-01T16:53:58.958Z,2.67
2018-04-01T16:56:26.297Z,3.20
2018-04-01T16:58:53.740Z,3.43
2018-04-01T17:01:21.080Z,3.87
2018-04-01T17:03:48.418Z,3.33
2018-04-01T17:06:15.695Z,3.83
2018-04-01T17:08:43.728Z,3.50
2018-04-01T17:11:11.057Z,2.93
2018-04-01T17:13:38.396Z,3.47
2018-04-01T17:16:05.735Z,3.53
2018-04-01T17:18:33.075Z,3.57
2018-04-01T17:21:00.413Z,4.30
2018-04-01T17:23:27.752Z,3.60
2018-04-01T17:25:55.093Z,3.70
2018-04-01T17:28:22.433Z,4.23
2018-04-01T17:30:49.777Z,5.20
2018-04-01T17:33:17.121Z,3.53
2018-04-01T17:35:44.455Z,3.37
2018-04-01T17:38:11.692Z,3.50
2018-04-01T17:40:39.041Z,3.50
2018-04-01T17:43:06.373Z,3.60
2018-04-01T17:45:33.711Z,3.50
2018-04-01T17:48:01.051Z,3.50
2018-04-01T17:50:28.493Z,3.90
2018-04-01T17:52:56.246Z,3.77
2018-04-01T17:55:23.520Z,3.60
2018-04-01T17:57:50.922Z,4.00
2018-04-01T18:00:18.272Z,3.70
2018-04-01T18:02:45.603Z,4.03
2018-04-01T18:05:12.943Z,3.33
2018-04-01T18:07:40.283Z,4.03
2018-04-01T18:10:07.626Z,3.77
2018-04-01T18:12:34.962Z,4.57
2018-04-01T18:15:02.418Z,4.53
2018-04-01T18:17:29.753Z,5.00
2018-04-01T18:19:57.085Z,5.40
2018-04-01T18:22:24.424Z,4.50
2018-04-01T18:24:51.774Z,4.80
2018-04-01T18:27:19.102Z,4.67
2018-04-01T18:29:46.545Z,4.23
2018-04-01T18:32:13.892Z,4.33
2018-04-01T18:34:41.228Z,4.50
2018-04-01T18:37:08.569Z,4.50
2018-04-01T18:39:35.906Z,4.90
2018-04-01T18:42:03.184Z,5.10
2018-04-01T18:44:30.483Z,4.67
2018-04-01T18:46:57.823Z,4.77
2018-04-01T18:49:25.060Z,5.27
2018-04-01T18:51:52.345Z,4.90
2018-04-01T18:54:19.639Z,4.73
2018-04-01T18:56:46.977Z,4.07
2018-04-01T18:59:14.421Z,4.60
2018-04-01T19:01:41.704Z,5.00
2018-04-01T19:04:08.999Z,4.17
2018-04-01T19:06:36.338Z,3.83
2018-04-01T19:09:03.663Z,4.43
2018-04-01T19:11:31.121Z,4.33
2018-04-01T19:13:58.461Z,4.20
2018-04-01T19:16:26.223Z,4.87
2018-04-01T19:18:54.164Z,4.90
2018-04-01T19:21:21.912Z,4.70
2018-04-01T19:23:49.662Z,4.50
2018-04-01T19:26:17.514Z,4.40
2018-04-01T19:28:45.274Z,4.93
2018-04-01T19:31:13.118Z,5.20
2018-04-01T19:33:41.072Z,4.80
2018-04-01T19:36:08.821Z,4.17
2018-04-01T19:38:37.593Z,4.90
2018-04-01T19:41:05.445Z,4.80
2018-04-01T19:43:33.332Z,4.50
2018-04-01T19:46:01.150Z,4.60
2018-04-01T19:48:29.003Z,4.60
2018-04-01T19:50:56.750Z,5.23
2018-04-01T19:53:24.586Z,4.77
2018-04-01T19:55:52.455Z,5.20
2018-04-01T19:58:20.245Z,5.60
2018-04-01T20:00:48.773Z,5.10
2018-04-01T20:03:16.726Z,5.30
2018-04-01T20:05:44.579Z,5.80
2018-04-01T20:08:12.329Z,5.63
2018-04-01T20:10:40.184Z,5.50
2018-04-01T20:13:07.930Z,5.37
2018-04-01T20:15:35.782Z,5.40
2018-04-01T20:18:03.530Z,5.53
2018-04-01T20:20:31.320Z,5.43
2018-04-01T20:22:59.139Z,5.47
2018-04-01T20:25:31.854Z,6.03
2018-04-01T20:27:59.751Z,5.50
2018-04-01T20:30:27.539Z,5.40
2018-04-01T20:32:55.352Z,5.73
2018-04-01T20:35:23.063Z,5.93
2018-04-01T20:37:55.251Z,6.17
2018-04-01T20:40:23.621Z,5.70
2018-04-01T20:42:51.572Z,5.57
2018-04-01T20:45:19.320Z,5.43
2018-04-01T20:47:47.171Z,5.27
2018-04-01T20:50:14.924Z,5.60
2018-04-01T20:52:42.777Z,5.33
2018-04-01T20:55:10.524Z,5.80
2018-04-01T20:57:38.376Z,6.80
2018-04-01T21:00:06.126Z,5.90
2018-04-01T21:02:33.978Z,5.83
2018-04-01T21:05:01.731Z,6.43
2018-04-01T21:07:29.584Z,6.20
2018-04-01T21:09:57.432Z,6.20
2018-04-01T21:12:25.180Z,6.03
2018-04-01T21:14:52.928Z,6.00
2018-04-01T21:17:20.784Z,5.43
2018-04-01T21:19:48.635Z,6.00
2018-04-01T21:22:16.381Z,5.80
2018-04-01T21:24:44.238Z,6.13
2018-04-01T21:27:11.993Z,6.20
2018-04-01T21:29:39.837Z,6.13
2018-04-01T21:32:07.689Z,5.97
2018-04-01T21:34:35.437Z,5.53
2018-04-01T21:37:03.290Z,5.57
2018-04-01T21:39:31.040Z,5.37
2018-04-01T21:41:58.768Z,5.27
2018-04-01T21:44:26.441Z,5.93
2018-04-01T21:46:54.286Z,6.30
2018-04-01T21:49:22.036Z,6.37
2018-04-01T21:51:49.786Z,5.40
2018-04-01T21:54:17.636Z,6.10
2018-04-01T21:56:45.494Z,6.53
2018-04-01T21:59:13.445Z,6.07
2018-04-01T22:01:41.194Z,5.80
2018-04-01T22:04:09.093Z,6.13
2018-04-01T22:06:36.899Z,5.30
2018-04-01T22:09:05.673Z,6.20
2018-04-01T22:11:33.522Z,5.40
2018-04-01T22:14:01.378Z,5.37
2018-04-01T22:16:29.124Z,4.80
2018-04-01T22:18:56.975Z,5.40
2018-04-01T22:21:24.826Z,5.30
2018-04-01T22:23:52.576Z,5.10
2018-04-01T22:26:20.427Z,4.73
2018-04-01T22:28:48.178Z,5.10
2018-04-01T22:31:15.931Z,5.60
2018-04-01T22:33:43.836Z,4.97
2018-04-01T22:36:11.735Z,6.33
2018-04-01T22:38:39.587Z,5.93
2018-04-01T22:41:07.336Z,5.73
2018-04-01T22:43:35.190Z,5.27
2018-04-01T22:46:02.937Z,4.70
2018-04-01T22:48:30.788Z,4.80
2018-04-01T22:50:58.539Z,4.83
2018-04-01T22:53:26.390Z,5.20
2018-04-01T22:55:54.138Z,5.53
2018-04-01T22:58:21.991Z,5.17
2018-04-01T23:00:49.803Z,5.17
2018-04-01T23:03:17.694Z,4.50
2018-04-01T23:05:45.548Z,4.03
2018-04-01T23:08:13.402Z,4.70
2018-04-01T23:10:41.254Z,5.00
2018-04-01T23:13:09.001Z,5.13
2018-04-01T23:15:36.853Z,5.00
2018-04-01T23:18:04.604Z,4.93
2018-04-01T23:20:32.485Z,4.53
2018-04-01T23:23:01.124Z,4.53
2018-04-01T23:25:28.874Z,4.40
2018-04-01T23:27:56.623Z,4.70
2018-04-01T23:30:24.476Z,4.30
2018-04-01T23:32:52.224Z,4.60
2018-04-01T23:35:20.075Z,5.67
2018-04-01T23:37:47.927Z,4.80
2018-04-01T23:40:15.680Z,5.10
2018-04-01T23:42:43.427Z,5.00
2018-04-01T23:45:11.254Z,5.03
2018-04-01T23:47:39.132Z,4.97
2018-04-01T23:50:06.983Z,4.67
2018-04-01T23:52:34.836Z,4.93
2018-04-01T23:55:02.585Z,5.30
2018-04-01T23:57:30.436Z,4.87
2018-04-01T23:59:58.287Z,5.00
